ETH19 LSZH-LIMC
Flight info
| Callsign | ETH19 |
|---|---|
| Flight time | 0h 58m |
| Altitude | 22000 |
| Route | VEBIT T53 OMIDO/N0472F240 T53 GERSA/N0464F230 DCT SOSON DCT DEGAD DCT BASGO Z424 AKASU/N0439F190 Z424 RIXUV |
| Aircraft | A35K/H-SDE2E3GHIJ3J4J5LM1ORWXY/LB1D1 |
Departure
| Time | 2026-05-05 19:50 |
|---|---|
| Airport | Zürich Airport (LSZH) |
Arrival
| Time | 2026-05-05 20:49 |
|---|---|
| Airport | Milan Malpensa International Airport (LIMC) |
| Time | Latitude | Longitude | Altitude | Speed | Heading |
|---|---|---|---|---|---|
| 2026-05-05 19:23 | 47.46170 | 8.55685 | 1408 ft | 0 kts | 186° |
| 2026-05-05 19:42 | 47.46193 | 8.55688 | 1410 ft | 4 kts | 186° |
| 2026-05-05 19:42 | 47.46217 | 8.55692 | 1407 ft | 4 kts | 179° |
| 2026-05-05 19:42 | 47.46238 | 8.55681 | 1415 ft | 4 kts | 118° |
| 2026-05-05 19:42 | 47.46245 | 8.55644 | 1415 ft | 4 kts | 96° |
| 2026-05-05 19:43 | 47.46247 | 8.55623 | 1411 ft | 1 kts | 96° |
| 2026-05-05 19:43 | 47.46247 | 8.55622 | 1411 ft | 0 kts | 96° |
| 2026-05-05 19:45 | 47.46246 | 8.55627 | 1415 ft | 1 kts | 97° |
| 2026-05-05 19:45 | 47.46244 | 8.55664 | 1410 ft | 6 kts | 95° |
| 2026-05-05 19:46 | 47.46239 | 8.55752 | 1412 ft | 11 kts | 95° |
| 2026-05-05 19:46 | 47.46231 | 8.55880 | 1409 ft | 13 kts | 98° |
| 2026-05-05 19:46 | 47.46209 | 8.55978 | 1417 ft | 9 kts | 120° |
| 2026-05-05 19:46 | 47.46170 | 8.56047 | 1421 ft | 9 kts | 134° |
| 2026-05-05 19:47 | 47.46122 | 8.56116 | 1421 ft | 10 kts | 136° |
| 2026-05-05 19:47 | 47.46089 | 8.56161 | 1422 ft | 1 kts | 138° |
| 2026-05-05 19:47 | 47.46089 | 8.56162 | 1422 ft | 0 kts | 138° |
| 2026-05-05 19:48 | 47.46082 | 8.56171 | 1422 ft | 8 kts | 135° |
| 2026-05-05 19:49 | 47.46059 | 8.56276 | 1418 ft | 10 kts | 77° |
| 2026-05-05 19:49 | 47.46088 | 8.56347 | 1424 ft | 8 kts | 48° |
| 2026-05-05 19:49 | 47.46144 | 8.56385 | 1424 ft | 11 kts | 2° |
| 2026-05-05 19:49 | 47.46217 | 8.56322 | 1422 ft | 14 kts | 317° |
| 2026-05-05 19:50 | 47.46360 | 8.56129 | 1417 ft | 65 kts | 317° |
| 2026-05-05 19:50 | 47.46944 | 8.55332 | 1405 ft | 161 kts | 317° |
| 2026-05-05 19:50 | 47.47929 | 8.54043 | 1840 ft | 208 kts | 321° |
| 2026-05-05 19:50 | 47.49166 | 8.52714 | 2948 ft | 231 kts | 326° |
| 2026-05-05 19:51 | 47.50448 | 8.51286 | 3856 ft | 227 kts | 314° |
| 2026-05-05 19:51 | 47.51349 | 8.49472 | 4582 ft | 214 kts | 293° |
| 2026-05-05 19:51 | 47.51750 | 8.47400 | 4975 ft | 206 kts | 275° |
| 2026-05-05 19:51 | 47.51825 | 8.45288 | 5464 ft | 207 kts | 270° |
| 2026-05-05 19:52 | 47.51854 | 8.43159 | 6337 ft | 205 kts | 270° |
| 2026-05-05 19:52 | 47.51725 | 8.41080 | 7169 ft | 204 kts | 255° |
| 2026-05-05 19:52 | 47.51069 | 8.39214 | 7947 ft | 208 kts | 233° |
| 2026-05-05 19:52 | 47.50075 | 8.37558 | 8574 ft | 226 kts | 225° |
| 2026-05-05 19:53 | 47.48728 | 8.36106 | 8895 ft | 254 kts | 213° |
| 2026-05-05 19:53 | 47.47112 | 8.34923 | 9620 ft | 265 kts | 206° |
| 2026-05-05 19:53 | 47.45381 | 8.33989 | 10646 ft | 267 kts | 202° |
| 2026-05-05 19:53 | 47.43574 | 8.33158 | 11386 ft | 279 kts | 201° |
| 2026-05-05 19:54 | 47.41638 | 8.32320 | 11791 ft | 302 kts | 200° |
| 2026-05-05 19:54 | 47.39486 | 8.31561 | 11880 ft | 335 kts | 192° |
| 2026-05-05 19:54 | 47.37080 | 8.31614 | 11885 ft | 357 kts | 173° |
| 2026-05-05 19:54 | 47.34714 | 8.32890 | 11903 ft | 366 kts | 157° |
| 2026-05-05 19:55 | 47.32449 | 8.34627 | 11912 ft | 367 kts | 156° |
| 2026-05-05 19:55 | 47.30246 | 8.36559 | 11918 ft | 371 kts | 149° |
| 2026-05-05 19:55 | 47.28264 | 8.38969 | 12243 ft | 381 kts | 140° |
| 2026-05-05 19:55 | 47.26350 | 8.41699 | 13220 ft | 381 kts | 140° |
| 2026-05-05 19:56 | 47.24322 | 8.44221 | 14099 ft | 382 kts | 148° |
| 2026-05-05 19:56 | 47.22131 | 8.46435 | 14868 ft | 384 kts | 152° |
| 2026-05-05 19:56 | 47.19838 | 8.48472 | 15709 ft | 385 kts | 155° |
| 2026-05-05 19:56 | 47.17443 | 8.50246 | 16530 ft | 385 kts | 163° |
| 2026-05-05 19:57 | 47.14865 | 8.51284 | 17320 ft | 385 kts | 173° |
| 2026-05-05 19:57 | 47.13114 | 8.51711 | 17830 ft | 387 kts | 175° |
| 2026-05-05 19:57 | 47.09518 | 8.52305 | 18828 ft | 391 kts | 178° |
| 2026-05-05 19:57 | 47.06785 | 8.52643 | 19559 ft | 395 kts | 179° |
| 2026-05-05 19:58 | 47.04035 | 8.52966 | 20278 ft | 398 kts | 179° |
| 2026-05-05 19:58 | 47.01263 | 8.53308 | 20777 ft | 401 kts | 178° |
| 2026-05-05 19:58 | 46.98507 | 8.53668 | 20914 ft | 403 kts | 178° |
| 2026-05-05 19:58 | 46.95705 | 8.54053 | 20928 ft | 404 kts | 178° |
| 2026-05-05 19:59 | 46.92895 | 8.54454 | 20926 ft | 405 kts | 178° |
| 2026-05-05 19:59 | 46.90088 | 8.54865 | 20933 ft | 405 kts | 178° |
| 2026-05-05 19:59 | 46.87279 | 8.55274 | 20935 ft | 405 kts | 178° |
| 2026-05-05 19:59 | 46.84503 | 8.55675 | 20936 ft | 405 kts | 178° |
| 2026-05-05 20:00 | 46.81671 | 8.56092 | 20950 ft | 404 kts | 178° |
| 2026-05-05 20:00 | 46.78878 | 8.56492 | 20951 ft | 403 kts | 178° |
| 2026-05-05 20:00 | 46.76126 | 8.56879 | 20943 ft | 403 kts | 179° |
| 2026-05-05 20:00 | 46.73341 | 8.57277 | 20962 ft | 401 kts | 179° |
| 2026-05-05 20:01 | 46.70566 | 8.57677 | 20956 ft | 400 kts | 179° |
| 2026-05-05 20:01 | 46.67797 | 8.58073 | 20952 ft | 399 kts | 179° |
| 2026-05-05 20:01 | 46.65034 | 8.58467 | 20960 ft | 399 kts | 179° |
| 2026-05-05 20:01 | 46.62268 | 8.58863 | 20963 ft | 398 kts | 179° |
| 2026-05-05 20:02 | 46.59515 | 8.59256 | 20929 ft | 396 kts | 179° |
| 2026-05-05 20:02 | 46.56721 | 8.59648 | 20691 ft | 408 kts | 179° |
| 2026-05-05 20:02 | 46.53877 | 8.60048 | 20433 ft | 412 kts | 179° |
| 2026-05-05 20:02 | 46.51028 | 8.60458 | 20167 ft | 411 kts | 178° |
| 2026-05-05 20:03 | 46.48180 | 8.60859 | 19933 ft | 410 kts | 179° |
| 2026-05-05 20:03 | 46.45388 | 8.60841 | 19694 ft | 405 kts | 188° |
| 2026-05-05 20:03 | 46.42643 | 8.60040 | 19460 ft | 400 kts | 201° |
| 2026-05-05 20:03 | 46.40108 | 8.58435 | 19214 ft | 397 kts | 210° |
| 2026-05-05 20:04 | 46.37693 | 8.56477 | 19031 ft | 397 kts | 213° |
| 2026-05-05 20:04 | 46.35343 | 8.54368 | 18957 ft | 397 kts | 214° |
| 2026-05-05 20:04 | 46.33016 | 8.52206 | 18994 ft | 397 kts | 214° |
| 2026-05-05 20:04 | 46.30683 | 8.50070 | 18974 ft | 397 kts | 211° |
| 2026-05-05 20:05 | 46.28166 | 8.48408 | 18978 ft | 400 kts | 201° |
| 2026-05-05 20:05 | 46.25431 | 8.47576 | 18974 ft | 404 kts | 188° |
| 2026-05-05 20:05 | 46.22620 | 8.47510 | 18992 ft | 405 kts | 182° |
| 2026-05-05 20:05 | 46.19806 | 8.47758 | 18989 ft | 405 kts | 179° |
| 2026-05-05 20:06 | 46.17033 | 8.48159 | 18998 ft | 405 kts | 178° |
| 2026-05-05 20:06 | 46.14237 | 8.48625 | 18993 ft | 404 kts | 177° |
| 2026-05-05 20:06 | 46.11509 | 8.49274 | 18994 ft | 389 kts | 170° |
| 2026-05-05 20:06 | 46.08986 | 8.50444 | 19010 ft | 371 kts | 165° |
| 2026-05-05 20:07 | 46.06625 | 8.51708 | 19003 ft | 352 kts | 165° |
| 2026-05-05 20:07 | 46.04390 | 8.52917 | 18987 ft | 335 kts | 165° |
| 2026-05-05 20:07 | 46.02273 | 8.54065 | 18739 ft | 315 kts | 165° |
| 2026-05-05 20:07 | 46.00274 | 8.55152 | 18256 ft | 302 kts | 166° |
| 2026-05-05 20:08 | 45.98331 | 8.56197 | 17526 ft | 296 kts | 166° |
| 2026-05-05 20:08 | 45.96409 | 8.57231 | 16787 ft | 293 kts | 165° |
| 2026-05-05 20:08 | 45.94532 | 8.58246 | 16409 ft | 282 kts | 165° |
| 2026-05-05 20:08 | 45.92693 | 8.59237 | 16293 ft | 283 kts | 166° |
| 2026-05-05 20:09 | 45.90850 | 8.60233 | 16117 ft | 283 kts | 164° |
| 2026-05-05 20:09 | 45.89104 | 8.61567 | 15767 ft | 288 kts | 150° |
| 2026-05-05 20:09 | 45.87513 | 8.63320 | 15436 ft | 288 kts | 147° |
| 2026-05-05 20:09 | 45.85977 | 8.65117 | 15115 ft | 287 kts | 147° |
| 2026-05-05 20:10 | 45.84434 | 8.66924 | 14792 ft | 286 kts | 147° |
| 2026-05-05 20:10 | 45.82895 | 8.68719 | 14463 ft | 285 kts | 147° |
| 2026-05-05 20:10 | 45.81354 | 8.70509 | 14214 ft | 286 kts | 147° |
| 2026-05-05 20:10 | 45.79804 | 8.72302 | 14029 ft | 285 kts | 147° |
| 2026-05-05 20:11 | 45.78261 | 8.74087 | 13818 ft | 284 kts | 146° |
| 2026-05-05 20:11 | 45.76711 | 8.75837 | 13557 ft | 281 kts | 149° |
| 2026-05-05 20:11 | 45.75066 | 8.77299 | 13290 ft | 277 kts | 156° |
| 2026-05-05 20:11 | 45.73369 | 8.78615 | 13034 ft | 276 kts | 157° |
| 2026-05-05 20:12 | 45.71671 | 8.79912 | 12981 ft | 276 kts | 157° |
| 2026-05-05 20:12 | 45.69978 | 8.81205 | 12991 ft | 276 kts | 157° |
| 2026-05-05 20:12 | 45.68286 | 8.82501 | 12999 ft | 275 kts | 157° |
| 2026-05-05 20:12 | 45.66618 | 8.83780 | 12996 ft | 275 kts | 157° |
| 2026-05-05 20:13 | 45.64972 | 8.85049 | 12993 ft | 260 kts | 157° |
| 2026-05-05 20:13 | 45.63428 | 8.86250 | 12996 ft | 246 kts | 157° |
| 2026-05-05 20:13 | 45.61927 | 8.87347 | 12989 ft | 240 kts | 165° |
| 2026-05-05 20:13 | 45.60349 | 8.87347 | 12983 ft | 225 kts | 206° |
| 2026-05-05 20:14 | 45.59192 | 8.85920 | 12687 ft | 224 kts | 244° |
| 2026-05-05 20:14 | 45.59012 | 8.83762 | 12309 ft | 226 kts | 284° |
| 2026-05-05 20:14 | 45.59751 | 8.81762 | 11925 ft | 233 kts | 307° |
| 2026-05-05 20:14 | 45.60964 | 8.80180 | 11549 ft | 240 kts | 326° |
| 2026-05-05 20:15 | 45.62536 | 8.79346 | 11170 ft | 245 kts | 354° |
| 2026-05-05 20:15 | 45.64208 | 8.79725 | 10789 ft | 246 kts | 23° |
| 2026-05-05 20:15 | 45.65769 | 8.80758 | 10431 ft | 248 kts | 27° |
| 2026-05-05 20:15 | 45.67332 | 8.81820 | 10073 ft | 249 kts | 25° |
| 2026-05-05 20:16 | 45.68903 | 8.82805 | 9698 ft | 249 kts | 24° |
| 2026-05-05 20:16 | 45.70501 | 8.83764 | 9294 ft | 249 kts | 24° |
| 2026-05-05 20:16 | 45.72031 | 8.84929 | 8895 ft | 249 kts | 41° |
| 2026-05-05 20:16 | 45.72998 | 8.86902 | 8517 ft | 243 kts | 77° |
| 2026-05-05 20:17 | 45.73011 | 8.89249 | 8149 ft | 235 kts | 111° |
| 2026-05-05 20:17 | 45.72195 | 8.91154 | 8003 ft | 219 kts | 141° |
| 2026-05-05 20:17 | 45.70905 | 8.92217 | 7979 ft | 214 kts | 168° |
| 2026-05-05 20:17 | 45.69444 | 8.92279 | 7987 ft | 212 kts | 196° |
| 2026-05-05 20:18 | 45.68056 | 8.91565 | 7984 ft | 213 kts | 206° |
| 2026-05-05 20:18 | 45.67153 | 8.90983 | 7986 ft | 215 kts | 206° |
| 2026-05-05 20:18 | 45.65337 | 8.89812 | 7987 ft | 216 kts | 206° |
| 2026-05-05 20:18 | 45.63966 | 8.88949 | 7987 ft | 216 kts | 205° |
| 2026-05-05 20:19 | 45.62584 | 8.88092 | 8000 ft | 216 kts | 205° |
| 2026-05-05 20:19 | 45.61669 | 8.87478 | 7986 ft | 215 kts | 210° |
| 2026-05-05 20:19 | 45.60558 | 8.86128 | 7999 ft | 214 kts | 236° |
| 2026-05-05 20:19 | 45.60049 | 8.84160 | 7999 ft | 215 kts | 265° |
| 2026-05-05 20:20 | 45.60330 | 8.82057 | 7988 ft | 220 kts | 296° |
| 2026-05-05 20:20 | 45.61352 | 8.80433 | 7997 ft | 225 kts | 328° |
| 2026-05-05 20:20 | 45.62849 | 8.79797 | 7998 ft | 229 kts | 1° |
| 2026-05-05 20:20 | 45.64401 | 8.80297 | 7998 ft | 231 kts | 24° |
| 2026-05-05 20:21 | 45.65889 | 8.81225 | 7988 ft | 235 kts | 26° |
| 2026-05-05 20:21 | 45.67381 | 8.82193 | 7989 ft | 235 kts | 26° |
| 2026-05-05 20:21 | 45.68864 | 8.83134 | 8003 ft | 236 kts | 25° |
| 2026-05-05 20:21 | 45.70383 | 8.84080 | 7994 ft | 236 kts | 25° |
| 2026-05-05 20:22 | 45.71804 | 8.85176 | 7979 ft | 234 kts | 40° |
| 2026-05-05 20:22 | 45.72748 | 8.87000 | 7991 ft | 227 kts | 75° |
| 2026-05-05 20:22 | 45.72845 | 8.89202 | 7986 ft | 221 kts | 108° |
| 2026-05-05 20:22 | 45.72138 | 8.91100 | 7980 ft | 216 kts | 139° |
| 2026-05-05 20:23 | 45.70879 | 8.92203 | 7982 ft | 213 kts | 168° |
| 2026-05-05 20:23 | 45.69421 | 8.92265 | 7995 ft | 211 kts | 196° |
| 2026-05-05 20:23 | 45.68039 | 8.91551 | 7984 ft | 213 kts | 206° |
| 2026-05-05 20:23 | 45.66681 | 8.90674 | 7997 ft | 215 kts | 206° |
| 2026-05-05 20:24 | 45.65311 | 8.89795 | 7985 ft | 215 kts | 205° |
| 2026-05-05 20:24 | 45.63940 | 8.88932 | 7987 ft | 215 kts | 205° |
| 2026-05-05 20:24 | 45.62563 | 8.88079 | 8001 ft | 215 kts | 205° |
| 2026-05-05 20:24 | 45.61242 | 8.87096 | 7995 ft | 214 kts | 217° |
| 2026-05-05 20:25 | 45.60300 | 8.85514 | 7951 ft | 214 kts | 245° |
| 2026-05-05 20:25 | 45.60047 | 8.83436 | 7834 ft | 217 kts | 276° |
| 2026-05-05 20:25 | 45.60595 | 8.81430 | 7713 ft | 222 kts | 307° |
| 2026-05-05 20:25 | 45.61818 | 8.80089 | 7573 ft | 226 kts | 339° |
| 2026-05-05 20:26 | 45.63378 | 8.79859 | 7466 ft | 229 kts | 12° |
| 2026-05-05 20:26 | 45.64884 | 8.80592 | 7339 ft | 230 kts | 25° |
| 2026-05-05 20:26 | 45.66349 | 8.81534 | 7215 ft | 231 kts | 26° |
| 2026-05-05 20:26 | 45.67817 | 8.82477 | 7126 ft | 231 kts | 25° |
| 2026-05-05 20:27 | 45.69291 | 8.83404 | 7058 ft | 231 kts | 25° |
| 2026-05-05 20:27 | 45.70745 | 8.84311 | 7008 ft | 230 kts | 26° |
| 2026-05-05 20:27 | 45.72085 | 8.85530 | 6981 ft | 228 kts | 48° |
| 2026-05-05 20:27 | 45.72845 | 8.87458 | 6962 ft | 223 kts | 81° |
| 2026-05-05 20:28 | 45.72770 | 8.89619 | 6840 ft | 217 kts | 114° |
| 2026-05-05 20:28 | 45.71944 | 8.91373 | 6715 ft | 213 kts | 143° |
| 2026-05-05 20:28 | 45.70635 | 8.92292 | 6596 ft | 210 kts | 172° |
| 2026-05-05 20:28 | 45.69193 | 8.92182 | 6492 ft | 209 kts | 199° |
| 2026-05-05 20:29 | 45.67834 | 8.91420 | 6361 ft | 211 kts | 205° |
| 2026-05-05 20:29 | 45.66509 | 8.90561 | 6234 ft | 212 kts | 206° |
| 2026-05-05 20:29 | 45.65162 | 8.89698 | 6106 ft | 212 kts | 205° |
| 2026-05-05 20:29 | 45.63796 | 8.88917 | 6051 ft | 213 kts | 198° |
| 2026-05-05 20:30 | 45.62333 | 8.88640 | 6021 ft | 212 kts | 181° |
| 2026-05-05 20:30 | 45.60865 | 8.88770 | 5998 ft | 212 kts | 176° |
| 2026-05-05 20:30 | 45.59400 | 8.88998 | 5991 ft | 212 kts | 175° |
| 2026-05-05 20:30 | 45.57931 | 8.89254 | 5993 ft | 213 kts | 175° |
| 2026-05-05 20:31 | 45.56460 | 8.89522 | 5992 ft | 213 kts | 175° |
| 2026-05-05 20:31 | 45.54990 | 8.89796 | 5991 ft | 213 kts | 175° |
| 2026-05-05 20:31 | 45.53516 | 8.90075 | 5996 ft | 213 kts | 175° |
| 2026-05-05 20:31 | 45.52045 | 8.90354 | 5988 ft | 213 kts | 175° |
| 2026-05-05 20:32 | 45.50573 | 8.90635 | 5994 ft | 213 kts | 175° |
| 2026-05-05 20:32 | 45.49126 | 8.90943 | 5990 ft | 214 kts | 172° |
| 2026-05-05 20:32 | 45.47665 | 8.91348 | 5986 ft | 213 kts | 171° |
| 2026-05-05 20:32 | 45.46205 | 8.91766 | 5986 ft | 214 kts | 171° |
| 2026-05-05 20:33 | 45.44747 | 8.92176 | 5985 ft | 213 kts | 171° |
| 2026-05-05 20:33 | 45.43287 | 8.92581 | 5983 ft | 214 kts | 172° |
| 2026-05-05 20:33 | 45.41826 | 8.92982 | 5981 ft | 213 kts | 172° |
| 2026-05-05 20:33 | 45.40370 | 8.93380 | 5986 ft | 212 kts | 172° |
| 2026-05-05 20:34 | 45.38917 | 8.93775 | 5982 ft | 212 kts | 172° |
| 2026-05-05 20:34 | 45.37465 | 8.94175 | 5981 ft | 212 kts | 172° |
| 2026-05-05 20:34 | 45.36040 | 8.94561 | 5985 ft | 211 kts | 172° |
| 2026-05-05 20:34 | 45.34605 | 8.94948 | 5988 ft | 210 kts | 172° |
| 2026-05-05 20:35 | 45.33170 | 8.95335 | 5986 ft | 210 kts | 172° |
| 2026-05-05 20:35 | 45.31733 | 8.95724 | 5986 ft | 210 kts | 173° |
| 2026-05-05 20:35 | 45.30295 | 8.96113 | 5984 ft | 210 kts | 172° |
| 2026-05-05 20:35 | 45.28856 | 8.96507 | 5983 ft | 210 kts | 172° |
| 2026-05-05 20:36 | 45.27423 | 8.96895 | 5974 ft | 210 kts | 172° |
| 2026-05-05 20:36 | 45.26004 | 8.97278 | 5969 ft | 210 kts | 172° |
| 2026-05-05 20:36 | 45.24561 | 8.97670 | 5963 ft | 210 kts | 173° |
| 2026-05-05 20:36 | 45.23126 | 8.98058 | 5964 ft | 210 kts | 173° |
| 2026-05-05 20:37 | 45.21686 | 8.98310 | 5957 ft | 207 kts | 186° |
| 2026-05-05 20:37 | 45.20374 | 8.97588 | 5973 ft | 204 kts | 217° |
| 2026-05-05 20:37 | 45.19282 | 8.96279 | 5964 ft | 207 kts | 224° |
| 2026-05-05 20:37 | 45.18234 | 8.94870 | 5963 ft | 208 kts | 224° |
| 2026-05-05 20:38 | 45.17186 | 8.93442 | 5965 ft | 209 kts | 224° |
| 2026-05-05 20:38 | 45.16139 | 8.92015 | 5971 ft | 209 kts | 224° |
| 2026-05-05 20:38 | 45.15093 | 8.90589 | 5968 ft | 209 kts | 224° |
| 2026-05-05 20:38 | 45.14047 | 8.89160 | 5684 ft | 213 kts | 224° |
| 2026-05-05 20:39 | 45.13056 | 8.87630 | 5460 ft | 205 kts | 235° |
| 2026-05-05 20:39 | 45.12451 | 8.85841 | 5144 ft | 203 kts | 254° |
| 2026-05-05 20:39 | 45.12413 | 8.83808 | 4494 ft | 214 kts | 284° |
| 2026-05-05 20:39 | 45.13165 | 8.82021 | 4096 ft | 214 kts | 319° |
| 2026-05-05 20:40 | 45.14510 | 8.81158 | 3988 ft | 216 kts | 353° |
| 2026-05-05 20:40 | 45.16035 | 8.80984 | 3963 ft | 220 kts | 359° |
| 2026-05-05 20:40 | 45.17545 | 8.80904 | 3965 ft | 221 kts | 359° |
| 2026-05-05 20:40 | 45.19082 | 8.80813 | 3967 ft | 221 kts | 359° |
| 2026-05-05 20:41 | 45.20616 | 8.80708 | 3967 ft | 220 kts | 358° |
| 2026-05-05 20:41 | 45.22152 | 8.80593 | 3968 ft | 221 kts | 358° |
| 2026-05-05 20:41 | 45.23684 | 8.80473 | 3989 ft | 220 kts | 358° |
| 2026-05-05 20:41 | 45.25220 | 8.80349 | 3988 ft | 220 kts | 358° |
| 2026-05-05 20:42 | 45.26747 | 8.80225 | 3990 ft | 219 kts | 358° |
| 2026-05-05 20:42 | 45.28272 | 8.80100 | 3992 ft | 219 kts | 358° |
| 2026-05-05 20:42 | 45.29798 | 8.79975 | 3993 ft | 220 kts | 358° |
| 2026-05-05 20:42 | 45.31302 | 8.79851 | 3990 ft | 220 kts | 358° |
| 2026-05-05 20:43 | 45.32830 | 8.79725 | 3990 ft | 219 kts | 358° |
| 2026-05-05 20:43 | 45.34353 | 8.79599 | 3992 ft | 219 kts | 358° |
| 2026-05-05 20:43 | 45.35877 | 8.79473 | 3994 ft | 219 kts | 358° |
| 2026-05-05 20:43 | 45.37404 | 8.79347 | 3992 ft | 219 kts | 358° |
| 2026-05-05 20:44 | 45.38929 | 8.79220 | 3993 ft | 219 kts | 358° |
| 2026-05-05 20:44 | 45.40454 | 8.79073 | 3993 ft | 219 kts | 357° |
| 2026-05-05 20:44 | 45.41973 | 8.78876 | 3991 ft | 219 kts | 355° |
| 2026-05-05 20:44 | 45.43483 | 8.78674 | 3898 ft | 214 kts | 355° |
| 2026-05-05 20:45 | 45.46236 | 8.77954 | 3696 ft | 189 kts | 348° |
| 2026-05-05 20:45 | 45.47489 | 8.77598 | 3491 ft | 184 kts | 349° |
| 2026-05-05 20:45 | 45.48748 | 8.77259 | 3247 ft | 183 kts | 350° |
| 2026-05-05 20:46 | 45.50001 | 8.76927 | 2990 ft | 183 kts | 350° |
| 2026-05-05 20:46 | 45.51247 | 8.76594 | 2748 ft | 182 kts | 350° |
| 2026-05-05 20:46 | 45.52493 | 8.76255 | 2519 ft | 182 kts | 350° |
| 2026-05-05 20:46 | 45.53737 | 8.75912 | 2268 ft | 179 kts | 350° |
| 2026-05-05 20:47 | 45.54916 | 8.75585 | 2101 ft | 167 kts | 350° |
| 2026-05-05 20:47 | 45.56027 | 8.75278 | 1887 ft | 158 kts | 351° |
| 2026-05-05 20:47 | 45.57072 | 8.74990 | 1675 ft | 148 kts | 351° |
| 2026-05-05 20:47 | 45.58065 | 8.74717 | 1465 ft | 143 kts | 350° |
| 2026-05-05 20:48 | 45.59036 | 8.74449 | 1276 ft | 141 kts | 349° |
| 2026-05-05 20:48 | 45.59980 | 8.74188 | 1082 ft | 139 kts | 349° |
| 2026-05-05 20:48 | 45.60929 | 8.73929 | 890 ft | 138 kts | 349° |
| 2026-05-05 20:48 | 45.61866 | 8.73661 | 796 ft | 137 kts | 348° |
| 2026-05-05 20:49 | 45.62793 | 8.73401 | 748 ft | 129 kts | 348° |
| 2026-05-05 20:49 | 45.63487 | 8.73216 | 751 ft | 61 kts | 348° |
| 2026-05-05 20:49 | 45.63724 | 8.73101 | 751 ft | 14 kts | 329° |
| 2026-05-05 20:49 | 45.63756 | 8.73075 | 749 ft | 13 kts | 329° |